sensor_id;sensor_type;location;lat;lon;timestamp;temperature;humidity
23869;DHT22;12115;47.128;15.422;2023-04-03T00:01:16;6.50;95.40
23869;DHT22;12115;47.128;15.422;2023-04-03T00:03:44;6.40;95.60
23869;DHT22;12115;47.128;15.422;2023-04-03T00:06:11;6.40;95.30
23869;DHT22;12115;47.128;15.422;2023-04-03T00:08:39;6.30;95.70
23869;DHT22;12115;47.128;15.422;2023-04-03T00:11:10;6.30;95.50
23869;DHT22;12115;47.128;15.422;2023-04-03T00:13:38;6.30;95.50
23869;DHT22;12115;47.128;15.422;2023-04-03T00:16:07;6.20;95.70
23869;DHT22;12115;47.128;15.422;2023-04-03T00:18:34;6.10;96.30
23869;DHT22;12115;47.128;15.422;2023-04-03T00:21:02;5.80;96.50
23869;DHT22;12115;47.128;15.422;2023-04-03T00:23:30;5.80;96.20
23869;DHT22;12115;47.128;15.422;2023-04-03T00:25:58;5.80;96.60
23869;DHT22;12115;47.128;15.422;2023-04-03T00:28:25;5.70;96.60
23869;DHT22;12115;47.128;15.422;2023-04-03T00:30:54;5.80;96.50
23869;DHT22;12115;47.128;15.422;2023-04-03T00:33:22;5.70;95.90
23869;DHT22;12115;47.128;15.422;2023-04-03T00:35:49;5.70;95.80
23869;DHT22;12115;47.128;15.422;2023-04-03T00:38:17;5.60;96.50
23869;DHT22;12115;47.128;15.422;2023-04-03T00:40:47;5.50;96.30
23869;DHT22;12115;47.128;15.422;2023-04-03T00:43:23;5.50;96.20
23869;DHT22;12115;47.128;15.422;2023-04-03T00:45:53;5.40;96.50
23869;DHT22;12115;47.128;15.422;2023-04-03T00:48:45;5.40;96.30
23869;DHT22;12115;47.128;15.422;2023-04-03T00:51:16;5.30;96.80
23869;DHT22;12115;47.128;15.422;2023-04-03T00:54:05;5.30;96.40
23869;DHT22;12115;47.128;15.422;2023-04-03T00:56:36;5.30;96.40
23869;DHT22;12115;47.128;15.422;2023-04-03T00:59:08;5.20;96.20
23869;DHT22;12115;47.128;15.422;2023-04-03T01:01:37;5.10;96.60
23869;DHT22;12115;47.128;15.422;2023-04-03T01:04:05;5.10;96.40
23869;DHT22;12115;47.128;15.422;2023-04-03T01:06:36;5.10;96.40
23869;DHT22;12115;47.128;15.422;2023-04-03T01:09:06;5.10;96.60
23869;DHT22;12115;47.128;15.422;2023-04-03T01:11:34;5.00;96.20
23869;DHT22;12115;47.128;15.422;2023-04-03T01:14:02;5.00;96.70
23869;DHT22;12115;47.128;15.422;2023-04-03T01:16:29;5.00;96.40
23869;DHT22;12115;47.128;15.422;2023-04-03T01:19:00;5.00;96.30
23869;DHT22;12115;47.128;15.422;2023-04-03T01:24:27;5.00;96.80
23869;DHT22;12115;47.128;15.422;2023-04-03T01:26:56;5.00;96.50
23869;DHT22;12115;47.128;15.422;2023-04-03T01:29:23;5.00;96.50
23869;DHT22;12115;47.128;15.422;2023-04-03T01:31:58;5.00;96.50
23869;DHT22;12115;47.128;15.422;2023-04-03T01:34:28;5.00;96.80
23869;DHT22;12115;47.128;15.422;2023-04-03T01:36:56;4.90;96.40
23869;DHT22;12115;47.128;15.422;2023-04-03T01:39:24;4.90;96.30
23869;DHT22;12115;47.128;15.422;2023-04-03T01:41:51;5.00;96.40
23869;DHT22;12115;47.128;15.422;2023-04-03T01:44:32;4.90;96.70
23869;DHT22;12115;47.128;15.422;2023-04-03T01:47:00;5.00;96.50
23869;DHT22;12115;47.128;15.422;2023-04-03T01:49:28;4.90;96.40
23869;DHT22;12115;47.128;15.422;2023-04-03T01:51:56;4.90;96.40
23869;DHT22;12115;47.128;15.422;2023-04-03T01:54:24;4.90;96.60
23869;DHT22;12115;47.128;15.422;2023-04-03T01:56:51;4.90;96.40
23869;DHT22;12115;47.128;15.422;2023-04-03T01:59:20;4.90;96.70
23869;DHT22;12115;47.128;15.422;2023-04-03T02:01:47;4.90;96.40
23869;DHT22;12115;47.128;15.422;2023-04-03T02:04:15;4.90;96.50
23869;DHT22;12115;47.128;15.422;2023-04-03T02:06:42;4.90;96.20
23869;DHT22;12115;47.128;15.422;2023-04-03T02:09:10;4.90;95.90
23869;DHT22;12115;47.128;15.422;2023-04-03T02:11:37;4.90;95.60
23869;DHT22;12115;47.128;15.422;2023-04-03T02:14:04;4.90;96.00
23869;DHT22;12115;47.128;15.422;2023-04-03T02:16:32;4.90;96.00
23869;DHT22;12115;47.128;15.422;2023-04-03T02:18:59;4.90;96.00
23869;DHT22;12115;47.128;15.422;2023-04-03T02:21:29;4.90;96.00
23869;DHT22;12115;47.128;15.422;2023-04-03T02:23:56;4.90;96.10
23869;DHT22;12115;47.128;15.422;2023-04-03T02:26:23;4.90;96.10
23869;DHT22;12115;47.128;15.422;2023-04-03T02:29:06;4.90;96.10
23869;DHT22;12115;47.128;15.422;2023-04-03T02:31:34;4.90;95.40
23869;DHT22;12115;47.128;15.422;2023-04-03T02:34:02;4.90;95.20
23869;DHT22;12115;47.128;15.422;2023-04-03T02:36:29;4.90;95.60
23869;DHT22;12115;47.128;15.422;2023-04-03T02:39:03;4.90;95.70
23869;DHT22;12115;47.128;15.422;2023-04-03T02:41:30;4.90;95.60
23869;DHT22;12115;47.128;15.422;2023-04-03T02:44:12;4.90;95.80
23869;DHT22;12115;47.128;15.422;2023-04-03T02:46:40;4.90;96.20
23869;DHT22;12115;47.128;15.422;2023-04-03T02:49:07;4.90;96.00
23869;DHT22;12115;47.128;15.422;2023-04-03T02:51:35;4.90;96.10
23869;DHT22;12115;47.128;15.422;2023-04-03T02:54:02;4.90;96.00
23869;DHT22;12115;47.128;15.422;2023-04-03T02:56:33;4.90;95.80
23869;DHT22;12115;47.128;15.422;2023-04-03T02:59:00;4.90;95.90
23869;DHT22;12115;47.128;15.422;2023-04-03T03:01:27;4.90;95.70
23869;DHT22;12115;47.128;15.422;2023-04-03T03:03:59;4.90;96.20
23869;DHT22;12115;47.128;15.422;2023-04-03T03:06:27;4.90;95.90
23869;DHT22;12115;47.128;15.422;2023-04-03T03:08:54;4.90;95.60
23869;DHT22;12115;47.128;15.422;2023-04-03T03:11:22;4.90;95.60
23869;DHT22;12115;47.128;15.422;2023-04-03T03:14:14;4.90;95.60
23869;DHT22;12115;47.128;15.422;2023-04-03T03:16:42;5.00;95.50
23869;DHT22;12115;47.128;15.422;2023-04-03T03:19:10;5.00;95.60
23869;DHT22;12115;47.128;15.422;2023-04-03T03:21:37;5.00;95.40
23869;DHT22;12115;47.128;15.422;2023-04-03T03:24:05;5.00;95.30
23869;DHT22;12115;47.128;15.422;2023-04-03T03:26:33;5.00;95.10
23869;DHT22;12115;47.128;15.422;2023-04-03T03:29:26;5.00;95.30
23869;DHT22;12115;47.128;15.422;2023-04-03T03:31:54;5.00;95.70
23869;DHT22;12115;47.128;15.422;2023-04-03T03:34:22;5.00;95.30
23869;DHT22;12115;47.128;15.422;2023-04-03T03:36:49;5.00;95.20
23869;DHT22;12115;47.128;15.422;2023-04-03T03:39:16;5.00;95.20
23869;DHT22;12115;47.128;15.422;2023-04-03T03:41:45;5.00;95.20
23869;DHT22;12115;47.128;15.422;2023-04-03T03:44:13;5.00;95.50
23869;DHT22;12115;47.128;15.422;2023-04-03T03:46:41;5.00;95.30
23869;DHT22;12115;47.128;15.422;2023-04-03T03:49:09;5.00;95.10
23869;DHT22;12115;47.128;15.422;2023-04-03T03:51:37;5.00;95.10
23869;DHT22;12115;47.128;15.422;2023-04-03T03:54:06;5.10;95.20
23869;DHT22;12115;47.128;15.422;2023-04-03T03:56:34;5.10;95.10
23869;DHT22;12115;47.128;15.422;2023-04-03T03:59:01;5.10;95.00
23869;DHT22;12115;47.128;15.422;2023-04-03T04:01:31;5.10;94.80
23869;DHT22;12115;47.128;15.422;2023-04-03T04:03:59;5.10;94.90
23869;DHT22;12115;47.128;15.422;2023-04-03T04:06:30;5.10;95.00
23869;DHT22;12115;47.128;15.422;2023-04-03T04:09:01;5.20;94.90
23869;DHT22;12115;47.128;15.422;2023-04-03T04:11:31;5.10;94.70
23869;DHT22;12115;47.128;15.422;2023-04-03T04:14:00;5.20;94.90
23869;DHT22;12115;47.128;15.422;2023-04-03T04:16:39;5.20;95.00
23869;DHT22;12115;47.128;15.422;2023-04-03T04:19:12;5.20;94.90
23869;DHT22;12115;47.128;15.422;2023-04-03T04:21:45;5.20;94.90
23869;DHT22;12115;47.128;15.422;2023-04-03T04:24:13;5.10;95.10
23869;DHT22;12115;47.128;15.422;2023-04-03T04:26:40;5.20;94.90
23869;DHT22;12115;47.128;15.422;2023-04-03T04:29:11;5.20;94.70
23869;DHT22;12115;47.128;15.422;2023-04-03T04:31:38;5.20;94.60
23869;DHT22;12115;47.128;15.422;2023-04-03T04:34:06;5.20;94.70
23869;DHT22;12115;47.128;15.422;2023-04-03T04:36:35;5.20;94.70
23869;DHT22;12115;47.128;15.422;2023-04-03T04:39:03;5.30;94.80
23869;DHT22;12115;47.128;15.422;2023-04-03T04:41:30;5.20;94.60
23869;DHT22;12115;47.128;15.422;2023-04-03T04:43:59;5.30;94.60
23869;DHT22;12115;47.128;15.422;2023-04-03T04:46:26;5.20;94.70
23869;DHT22;12115;47.128;15.422;2023-04-03T04:48:57;5.30;94.70
23869;DHT22;12115;47.128;15.422;2023-04-03T04:51:27;5.30;94.80
23869;DHT22;12115;47.128;15.422;2023-04-03T04:54:01;5.30;94.60
23869;DHT22;12115;47.128;15.422;2023-04-03T04:56:29;5.30;94.70
23869;DHT22;12115;47.128;15.422;2023-04-03T04:58:58;5.30;94.70
23869;DHT22;12115;47.128;15.422;2023-04-03T05:01:26;5.30;94.80
23869;DHT22;12115;47.128;15.422;2023-04-03T05:04:07;5.30;94.70
23869;DHT22;12115;47.128;15.422;2023-04-03T05:06:39;5.30;94.80
23869;DHT22;12115;47.128;15.422;2023-04-03T05:09:11;5.30;94.60
23869;DHT22;12115;47.128;15.422;2023-04-03T05:11:41;5.30;94.80
23869;DHT22;12115;47.128;15.422;2023-04-03T05:14:12;5.40;94.70
23869;DHT22;12115;47.128;15.422;2023-04-03T05:16:41;5.40;94.70
23869;DHT22;12115;47.128;15.422;2023-04-03T05:19:09;5.40;94.70
23869;DHT22;12115;47.128;15.422;2023-04-03T05:21:38;5.40;94.80
23869;DHT22;12115;47.128;15.422;2023-04-03T05:24:11;5.40;94.80
23869;DHT22;12115;47.128;15.422;2023-04-03T05:26:44;5.40;94.80
23869;DHT22;12115;47.128;15.422;2023-04-03T05:29:12;5.40;95.00
23869;DHT22;12115;47.128;15.422;2023-04-03T05:31:40;5.50;94.90
23869;DHT22;12115;47.128;15.422;2023-04-03T05:34:10;5.50;95.00
23869;DHT22;12115;47.128;15.422;2023-04-03T05:36:39;5.50;95.00
23869;DHT22;12115;47.128;15.422;2023-04-03T05:39:08;5.50;95.00
23869;DHT22;12115;47.128;15.422;2023-04-03T05:41:40;5.50;94.80
23869;DHT22;12115;47.128;15.422;2023-04-03T05:44:07;5.50;94.90
23869;DHT22;12115;47.128;15.422;2023-04-03T05:46:35;5.60;95.00
23869;DHT22;12115;47.128;15.422;2023-04-03T05:49:05;5.60;94.90
23869;DHT22;12115;47.128;15.422;2023-04-03T05:51:37;5.60;94.90
23869;DHT22;12115;47.128;15.422;2023-04-03T05:54:25;5.60;94.80
23869;DHT22;12115;47.128;15.422;2023-04-03T05:56:59;5.70;94.80
23869;DHT22;12115;47.128;15.422;2023-04-03T05:59:28;5.70;94.80
23869;DHT22;12115;47.128;15.422;2023-04-03T06:01:57;5.70;94.80
23869;DHT22;12115;47.128;15.422;2023-04-03T06:04:24;5.70;94.80
23869;DHT22;12115;47.128;15.422;2023-04-03T06:06:55;5.70;94.80
23869;DHT22;12115;47.128;15.422;2023-04-03T06:09:43;5.80;94.70
23869;DHT22;12115;47.128;15.422;2023-04-03T06:12:10;5.80;94.60
23869;DHT22;12115;47.128;15.422;2023-04-03T06:14:38;5.80;94.70
23869;DHT22;12115;47.128;15.422;2023-04-03T06:17:06;5.90;94.70
23869;DHT22;12115;47.128;15.422;2023-04-03T06:19:34;5.90;94.60
23869;DHT22;12115;47.128;15.422;2023-04-03T06:22:02;5.90;94.70
23869;DHT22;12115;47.128;15.422;2023-04-03T06:24:30;5.90;95.00
23869;DHT22;12115;47.128;15.422;2023-04-03T06:26:58;5.90;95.00
23869;DHT22;12115;47.128;15.422;2023-04-03T06:29:25;6.00;94.60
23869;DHT22;12115;47.128;15.422;2023-04-03T06:31:52;6.00;94.70
23869;DHT22;12115;47.128;15.422;2023-04-03T06:34:45;6.00;94.70
23869;DHT22;12115;47.128;15.422;2023-04-03T06:37:33;6.10;94.70
23869;DHT22;12115;47.128;15.422;2023-04-03T06:40:00;6.10;94.60
23869;DHT22;12115;47.128;15.422;2023-04-03T06:42:28;6.10;94.70
23869;DHT22;12115;47.128;15.422;2023-04-03T06:45:31;6.20;94.80
23869;DHT22;12115;47.128;15.422;2023-04-03T06:47:58;6.20;94.70
23869;DHT22;12115;47.128;15.422;2023-04-03T06:50:25;6.20;94.70
23869;DHT22;12115;47.128;15.422;2023-04-03T06:52:53;6.30;94.70
23869;DHT22;12115;47.128;15.422;2023-04-03T06:55:20;6.30;94.60
23869;DHT22;12115;47.128;15.422;2023-04-03T06:57:52;6.20;94.20
23869;DHT22;12115;47.128;15.422;2023-04-03T07:00:25;6.20;94.40
23869;DHT22;12115;47.128;15.422;2023-04-03T07:03:18;6.30;94.60
23869;DHT22;12115;47.128;15.422;2023-04-03T07:05:45;6.30;94.80
23869;DHT22;12115;47.128;15.422;2023-04-03T07:08:12;6.30;94.20
23869;DHT22;12115;47.128;15.422;2023-04-03T07:10:41;6.30;94.10
23869;DHT22;12115;47.128;15.422;2023-04-03T07:13:08;6.20;94.10
23869;DHT22;12115;47.128;15.422;2023-04-03T07:15:36;6.20;93.90
23869;DHT22;12115;47.128;15.422;2023-04-03T07:18:04;6.20;93.40
23869;DHT22;12115;47.128;15.422;2023-04-03T07:20:34;6.20;93.30
23869;DHT22;12115;47.128;15.422;2023-04-03T07:23:02;6.20;93.20
23869;DHT22;12115;47.128;15.422;2023-04-03T07:25:30;6.30;93.40
23869;DHT22;12115;47.128;15.422;2023-04-03T07:27:58;6.30;92.90
23869;DHT22;12115;47.128;15.422;2023-04-03T07:30:26;6.30;92.70
23869;DHT22;12115;47.128;15.422;2023-04-03T07:32:53;6.30;92.70
23869;DHT22;12115;47.128;15.422;2023-04-03T07:35:21;6.30;93.20
23869;DHT22;12115;47.128;15.422;2023-04-03T07:37:48;6.30;92.70
23869;DHT22;12115;47.128;15.422;2023-04-03T07:40:15;6.40;92.90
23869;DHT22;12115;47.128;15.422;2023-04-03T07:42:45;6.40;93.10
23869;DHT22;12115;47.128;15.422;2023-04-03T07:45:12;6.40;92.60
23869;DHT22;12115;47.128;15.422;2023-04-03T07:47:40;6.50;92.60
23869;DHT22;12115;47.128;15.422;2023-04-03T07:50:08;6.40;92.50
23869;DHT22;12115;47.128;15.422;2023-04-03T07:52:35;6.40;92.90
23869;DHT22;12115;47.128;15.422;2023-04-03T07:55:03;6.40;92.90
23869;DHT22;12115;47.128;15.422;2023-04-03T07:57:31;6.40;92.40
23869;DHT22;12115;47.128;15.422;2023-04-03T07:59:59;6.50;92.10
23869;DHT22;12115;47.128;15.422;2023-04-03T08:02:26;6.40;91.60
23869;DHT22;12115;47.128;15.422;2023-04-03T08:04:58;6.40;91.30
23869;DHT22;12115;47.128;15.422;2023-04-03T08:07:25;6.40;91.30
23869;DHT22;12115;47.128;15.422;2023-04-03T08:09:53;6.50;91.60
23869;DHT22;12115;47.128;15.422;2023-04-03T08:12:20;6.50;91.60
23869;DHT22;12115;47.128;15.422;2023-04-03T08:14:48;6.50;91.70
23869;DHT22;12115;47.128;15.422;2023-04-03T08:17:15;6.50;91.50
23869;DHT22;12115;47.128;15.422;2023-04-03T08:19:43;6.50;91.40
23869;DHT22;12115;47.128;15.422;2023-04-03T08:22:10;6.60;91.60
23869;DHT22;12115;47.128;15.422;2023-04-03T08:24:38;6.60;91.00
23869;DHT22;12115;47.128;15.422;2023-04-03T08:27:18;6.60;91.00
23869;DHT22;12115;47.128;15.422;2023-04-03T08:29:45;6.60;91.10
23869;DHT22;12115;47.128;15.422;2023-04-03T08:32:13;6.60;90.90
23869;DHT22;12115;47.128;15.422;2023-04-03T08:34:43;6.60;90.60
23869;DHT22;12115;47.128;15.422;2023-04-03T08:37:10;6.70;90.50
23869;DHT22;12115;47.128;15.422;2023-04-03T08:39:38;6.70;90.60
23869;DHT22;12115;47.128;15.422;2023-04-03T08:45:01;6.80;90.50
23869;DHT22;12115;47.128;15.422;2023-04-03T08:47:47;6.90;90.10
23869;DHT22;12115;47.128;15.422;2023-04-03T08:50:18;6.90;90.00
23869;DHT22;12115;47.128;15.422;2023-04-03T08:52:57;6.90;87.60
23869;DHT22;12115;47.128;15.422;2023-04-03T08:55:33;6.90;87.00
23869;DHT22;12115;47.128;15.422;2023-04-03T08:58:27;6.90;85.70
23869;DHT22;12115;47.128;15.422;2023-04-03T09:00:59;6.80;84.70
23869;DHT22;12115;47.128;15.422;2023-04-03T09:03:30;6.80;84.50
23869;DHT22;12115;47.128;15.422;2023-04-03T09:08:51;6.80;84.30
23869;DHT22;12115;47.128;15.422;2023-04-03T09:17:00;6.80;84.20
23869;DHT22;12115;47.128;15.422;2023-04-03T09:22:11;6.80;83.70
23869;DHT22;12115;47.128;15.422;2023-04-03T09:24:47;6.90;83.50
23869;DHT22;12115;47.128;15.422;2023-04-03T09:27:17;6.90;83.30
23869;DHT22;12115;47.128;15.422;2023-04-03T09:29:44;7.00;83.70
23869;DHT22;12115;47.128;15.422;2023-04-03T09:32:28;7.10;83.30
23869;DHT22;12115;47.128;15.422;2023-04-03T09:38:20;7.20;83.40
23869;DHT22;12115;47.128;15.422;2023-04-03T09:41:18;7.40;84.00
23869;DHT22;12115;47.128;15.422;2023-04-03T09:43:54;7.70;84.40
23869;DHT22;12115;47.128;15.422;2023-04-03T09:46:29;7.90;83.20
23869;DHT22;12115;47.128;15.422;2023-04-03T09:49:09;8.00;82.40
23869;DHT22;12115;47.128;15.422;2023-04-03T09:51:38;8.10;82.30
23869;DHT22;12115;47.128;15.422;2023-04-03T09:54:44;8.20;82.20
23869;DHT22;12115;47.128;15.422;2023-04-03T09:57:13;8.00;81.70
23869;DHT22;12115;47.128;15.422;2023-04-03T10:02:28;8.40;83.50
23869;DHT22;12115;47.128;15.422;2023-04-03T10:05:02;8.50;81.20
23869;DHT22;12115;47.128;15.422;2023-04-03T10:07:37;8.60;81.00
23869;DHT22;12115;47.128;15.422;2023-04-03T10:10:16;8.70;81.80
23869;DHT22;12115;47.128;15.422;2023-04-03T10:16:20;8.70;81.40
23869;DHT22;12115;47.128;15.422;2023-04-03T10:19:01;8.60;79.80
23869;DHT22;12115;47.128;15.422;2023-04-03T10:21:55;8.70;80.90
23869;DHT22;12115;47.128;15.422;2023-04-03T10:27:37;8.60;81.20
23869;DHT22;12115;47.128;15.422;2023-04-03T10:30:28;8.70;82.20
23869;DHT22;12115;47.128;15.422;2023-04-03T10:53:33;8.60;81.30
23869;DHT22;12115;47.128;15.422;2023-04-03T10:58:39;8.60;81.70
23869;DHT22;12115;47.128;15.422;2023-04-03T11:01:16;8.60;81.30
23869;DHT22;12115;47.128;15.422;2023-04-03T11:03:52;8.60;79.00
23869;DHT22;12115;47.128;15.422;2023-04-03T11:06:24;8.60;78.20
23869;DHT22;12115;47.128;15.422;2023-04-03T11:09:03;8.50;77.90
23869;DHT22;12115;47.128;15.422;2023-04-03T11:11:34;8.60;77.30
23869;DHT22;12115;47.128;15.422;2023-04-03T11:14:30;8.50;78.90
23869;DHT22;12115;47.128;15.422;2023-04-03T11:20:27;8.80;79.60
23869;DHT22;12115;47.128;15.422;2023-04-03T11:25:51;9.30;78.30
23869;DHT22;12115;47.128;15.422;2023-04-03T11:28:44;9.50;77.50
23869;DHT22;12115;47.128;15.422;2023-04-03T11:34:26;9.60;76.40
23869;DHT22;12115;47.128;15.422;2023-04-03T11:37:34;9.70;78.00
23869;DHT22;12115;47.128;15.422;2023-04-03T11:45:37;9.60;74.20
23869;DHT22;12115;47.128;15.422;2023-04-03T11:53:44;9.50;74.90
23869;DHT22;12115;47.128;15.422;2023-04-03T11:56:39;9.60;74.70
23869;DHT22;12115;47.128;15.422;2023-04-03T12:02:22;9.80;75.10
23869;DHT22;12115;47.128;15.422;2023-04-03T12:05:30;9.90;73.90
23869;DHT22;12115;47.128;15.422;2023-04-03T12:11:30;10.10;74.10
23869;DHT22;12115;47.128;15.422;2023-04-03T12:16:29;10.20;74.10
23869;DHT22;12115;47.128;15.422;2023-04-03T12:30:04;9.80;70.70
23869;DHT22;12115;47.128;15.422;2023-04-03T12:35:31;10.10;73.00
23869;DHT22;12115;47.128;15.422;2023-04-03T12:46:55;10.10;72.70
23869;DHT22;12115;47.128;15.422;2023-04-03T12:49:39;10.20;72.50
23869;DHT22;12115;47.128;15.422;2023-04-03T12:52:34;10.20;71.10
23869;DHT22;12115;47.128;15.422;2023-04-03T12:55:19;10.40;73.40
23869;DHT22;12115;47.128;15.422;2023-04-03T12:57:53;10.60;71.70
23869;DHT22;12115;47.128;15.422;2023-04-03T13:00:31;10.60;71.10
23869;DHT22;12115;47.128;15.422;2023-04-03T13:03:05;10.60;71.80
23869;DHT22;12115;47.128;15.422;2023-04-03T13:05:34;10.70;71.50
23869;DHT22;12115;47.128;15.422;2023-04-03T13:08:07;10.70;70.70
23869;DHT22;12115;47.128;15.422;2023-04-03T13:11:01;10.70;71.00
23869;DHT22;12115;47.128;15.422;2023-04-03T13:13:39;10.60;70.50
23869;DHT22;12115;47.128;15.422;2023-04-03T13:16:11;10.40;71.70
23869;DHT22;12115;47.128;15.422;2023-04-03T13:18:41;10.50;72.10
23869;DHT22;12115;47.128;15.422;2023-04-03T13:21:16;10.60;71.70
23869;DHT22;12115;47.128;15.422;2023-04-03T13:23:51;10.70;70.90
23869;DHT22;12115;47.128;15.422;2023-04-03T13:26:54;10.50;68.90
23869;DHT22;12115;47.128;15.422;2023-04-03T13:29:33;10.50;69.30
23869;DHT22;12115;47.128;15.422;2023-04-03T13:32:02;10.40;70.80
23869;DHT22;12115;47.128;15.422;2023-04-03T13:34:57;10.40;70.60
23869;DHT22;12115;47.128;15.422;2023-04-03T13:37:38;10.40;70.50
23869;DHT22;12115;47.128;15.422;2023-04-03T13:43:04;10.30;71.50
23869;DHT22;12115;47.128;15.422;2023-04-03T13:45:33;10.30;71.80
23869;DHT22;12115;47.128;15.422;2023-04-03T13:48:10;10.40;72.10
23869;DHT22;12115;47.128;15.422;2023-04-03T13:51:18;10.40;69.40
23869;DHT22;12115;47.128;15.422;2023-04-03T13:53:59;10.20;69.00
23869;DHT22;12115;47.128;15.422;2023-04-03T13:56:45;10.10;70.20
23869;DHT22;12115;47.128;15.422;2023-04-03T14:04:31;10.10;69.50
23869;DHT22;12115;47.128;15.422;2023-04-03T14:06:59;9.80;68.70
23869;DHT22;12115;47.128;15.422;2023-04-03T14:09:27;9.90;69.20
23869;DHT22;12115;47.128;15.422;2023-04-03T14:11:58;10.00;69.70
23869;DHT22;12115;47.128;15.422;2023-04-03T14:14:33;10.10;70.70
23869;DHT22;12115;47.128;15.422;2023-04-03T14:17:13;10.20;69.40
23869;DHT22;12115;47.128;15.422;2023-04-03T14:19:52;10.30;69.60
23869;DHT22;12115;47.128;15.422;2023-04-03T14:22:29;10.30;69.10
23869;DHT22;12115;47.128;15.422;2023-04-03T14:24:56;10.10;67.80
23869;DHT22;12115;47.128;15.422;2023-04-03T14:27:28;10.10;68.00
23869;DHT22;12115;47.128;15.422;2023-04-03T14:29:57;10.00;68.10
23869;DHT22;12115;47.128;15.422;2023-04-03T14:32:26;10.10;68.50
23869;DHT22;12115;47.128;15.422;2023-04-03T14:35:19;10.00;68.40
23869;DHT22;12115;47.128;15.422;2023-04-03T14:37:47;9.90;69.30
23869;DHT22;12115;47.128;15.422;2023-04-03T14:40:19;10.00;68.90
23869;DHT22;12115;47.128;15.422;2023-04-03T14:42:47;10.00;67.80
23869;DHT22;12115;47.128;15.422;2023-04-03T14:45:17;10.10;68.20
23869;DHT22;12115;47.128;15.422;2023-04-03T14:47:55;10.10;68.60
23869;DHT22;12115;47.128;15.422;2023-04-03T14:50:26;10.10;67.70
23869;DHT22;12115;47.128;15.422;2023-04-03T14:53:03;10.10;67.30
23869;DHT22;12115;47.128;15.422;2023-04-03T14:55:31;10.10;66.50
23869;DHT22;12115;47.128;15.422;2023-04-03T14:57:59;10.20;67.50
23869;DHT22;12115;47.128;15.422;2023-04-03T15:00:26;10.10;66.70
23869;DHT22;12115;47.128;15.422;2023-04-03T15:02:54;9.90;66.00
23869;DHT22;12115;47.128;15.422;2023-04-03T15:05:21;9.70;66.10
23869;DHT22;12115;47.128;15.422;2023-04-03T15:07:58;9.70;67.10
23869;DHT22;12115;47.128;15.422;2023-04-03T15:10:29;9.60;67.10
23869;DHT22;12115;47.128;15.422;2023-04-03T15:12:57;9.60;66.60
23869;DHT22;12115;47.128;15.422;2023-04-03T15:15:29;9.50;68.30
23869;DHT22;12115;47.128;15.422;2023-04-03T15:17:57;9.40;67.90
23869;DHT22;12115;47.128;15.422;2023-04-03T15:20:27;9.30;68.10
23869;DHT22;12115;47.128;15.422;2023-04-03T15:22:59;9.40;67.70
23869;DHT22;12115;47.128;15.422;2023-04-03T15:25:32;9.30;68.10
23869;DHT22;12115;47.128;15.422;2023-04-03T15:28:00;9.30;67.80
23869;DHT22;12115;47.128;15.422;2023-04-03T15:30:27;9.20;67.40
23869;DHT22;12115;47.128;15.422;2023-04-03T15:33:32;9.00;67.20
23869;DHT22;12115;47.128;15.422;2023-04-03T15:35:59;9.10;67.70
23869;DHT22;12115;47.128;15.422;2023-04-03T15:38:34;9.00;67.90
23869;DHT22;12115;47.128;15.422;2023-04-03T15:41:01;9.10;67.50
23869;DHT22;12115;47.128;15.422;2023-04-03T15:43:29;9.00;67.50
23869;DHT22;12115;47.128;15.422;2023-04-03T15:45:59;8.80;67.60
23869;DHT22;12115;47.128;15.422;2023-04-03T15:48:28;8.70;68.10
23869;DHT22;12115;47.128;15.422;2023-04-03T15:50:56;8.80;68.70
23869;DHT22;12115;47.128;15.422;2023-04-03T15:53:25;8.80;68.00
23869;DHT22;12115;47.128;15.422;2023-04-03T15:55:52;8.80;68.20
23869;DHT22;12115;47.128;15.422;2023-04-03T15:58:20;8.70;68.40
23869;DHT22;12115;47.128;15.422;2023-04-03T16:00:48;8.70;68.20
23869;DHT22;12115;47.128;15.422;2023-04-03T16:03:18;8.70;68.60
23869;DHT22;12115;47.128;15.422;2023-04-03T16:05:47;8.60;68.40
23869;DHT22;12115;47.128;15.422;2023-04-03T16:08:15;8.40;68.90
23869;DHT22;12115;47.128;15.422;2023-04-03T16:10:45;8.50;68.60
23869;DHT22;12115;47.128;15.422;2023-04-03T16:13:14;8.40;68.20
23869;DHT22;12115;47.128;15.422;2023-04-03T16:15:42;8.40;69.60
23869;DHT22;12115;47.128;15.422;2023-04-03T16:18:10;8.40;68.90
23869;DHT22;12115;47.128;15.422;2023-04-03T16:20:37;8.40;68.50
23869;DHT22;12115;47.128;15.422;2023-04-03T16:23:05;8.30;68.20
23869;DHT22;12115;47.128;15.422;2023-04-03T16:25:32;8.20;68.60
23869;DHT22;12115;47.128;15.422;2023-04-03T16:28:00;8.10;68.90
23869;DHT22;12115;47.128;15.422;2023-04-03T16:30:27;8.10;68.90
23869;DHT22;12115;47.128;15.422;2023-04-03T16:32:54;8.00;69.40
23869;DHT22;12115;47.128;15.422;2023-04-03T16:35:23;7.90;68.90
23869;DHT22;12115;47.128;15.422;2023-04-03T16:37:50;7.70;69.30
23869;DHT22;12115;47.128;15.422;2023-04-03T16:40:18;7.60;69.60
23869;DHT22;12115;47.128;15.422;2023-04-03T16:42:47;7.60;69.50
23869;DHT22;12115;47.128;15.422;2023-04-03T16:45:14;7.60;69.30
23869;DHT22;12115;47.128;15.422;2023-04-03T16:47:42;7.50;69.20
23869;DHT22;12115;47.128;15.422;2023-04-03T16:50:11;7.50;69.30
23869;DHT22;12115;47.128;15.422;2023-04-03T16:52:38;7.50;69.50
23869;DHT22;12115;47.128;15.422;2023-04-03T16:55:07;7.30;68.30
23869;DHT22;12115;47.128;15.422;2023-04-03T16:57:35;7.20;67.50
23869;DHT22;12115;47.128;15.422;2023-04-03T17:00:03;7.20;67.50
23869;DHT22;12115;47.128;15.422;2023-04-03T17:02:31;7.10;67.60
23869;DHT22;12115;47.128;15.422;2023-04-03T17:04:59;7.00;67.80
23869;DHT22;12115;47.128;15.422;2023-04-03T17:07:26;6.90;68.10
23869;DHT22;12115;47.128;15.422;2023-04-03T17:09:54;6.80;68.00
23869;DHT22;12115;47.128;15.422;2023-04-03T17:12:22;6.70;67.50
23869;DHT22;12115;47.128;15.422;2023-04-03T17:14:50;6.60;68.00
23869;DHT22;12115;47.128;15.422;2023-04-03T17:17:22;6.40;67.80
23869;DHT22;12115;47.128;15.422;2023-04-03T17:19:51;6.30;68.10
23869;DHT22;12115;47.128;15.422;2023-04-03T17:22:21;6.30;68.80
23869;DHT22;12115;47.128;15.422;2023-04-03T17:24:49;6.30;68.40
23869;DHT22;12115;47.128;15.422;2023-04-03T17:27:27;6.30;68.40
23869;DHT22;12115;47.128;15.422;2023-04-03T17:29:55;6.20;68.80
23869;DHT22;12115;47.128;15.422;2023-04-03T17:32:23;6.20;68.80
23869;DHT22;12115;47.128;15.422;2023-04-03T17:34:53;6.00;69.00
23869;DHT22;12115;47.128;15.422;2023-04-03T17:37:22;6.10;68.20
23869;DHT22;12115;47.128;15.422;2023-04-03T17:39:49;6.00;68.60
23869;DHT22;12115;47.128;15.422;2023-04-03T17:42:20;5.90;68.80
23869;DHT22;12115;47.128;15.422;2023-04-03T17:44:48;5.80;68.80
23869;DHT22;12115;47.128;15.422;2023-04-03T17:47:16;5.90;69.10
23869;DHT22;12115;47.128;15.422;2023-04-03T17:49:44;5.80;69.00
23869;DHT22;12115;47.128;15.422;2023-04-03T17:52:12;5.80;69.20